EDHI/XFW METAR and TAF weather

Enter ICAO airport designator
Station Type Date Time Source
EDHI METAR 2018/10/21 04:20 UTC NOAA

EDHI 210420Z AUTO VRB02KT 4200 // OVC031/// 09/09 Q1028


Station Type Date Time Source
EDHI Decoded METAR 2018/10/21 04:20 UTC NOAA

Hamburg-Finkenwerder, Germany (EDHI) 53-32N 009-50E 13M
Oct 21, 2018 - 12:20 AM EDT / 2018.10.21 0420 UTC
Wind: Variable at 2 MPH (2 KT):0
Visibility: 2 mile(s):0
Sky conditions: overcast
Temperature: 48 F (9 C)
Dew Point: 48 F (9 C)
Relative Humidity: 100%
Pressure (altimeter): 30.36 in. Hg (1028 hPa)
ob: EDHI 210420Z AUTO VRB02KT 4200 // OVC031/// 09/09 Q1028
cycle: 4

Station Type Date Time Source
EDHI TAF 2010/02/22 14:20 UTC NOAA

METAR EDHI 221420Z 17005KT 9999 BKN030 05/02 Q0989


Example: see airport list